Ellsworth, Kansas
Current Conditions -  °F | °C
As of 11:53 PM on Tuesday 21 Oct 2014 (Local Time) from KSLN Reporting Station
Clear Clear  
Wind Chill: 65°   Ceiling: Unl
Heat Index: 65°   Visibility: 10mi
Dew Point: 57°   Wind: 12mph
Humidity: 75%   Direction: 160°SSE
Pressure: 30.02"   Gusts: NA
Location:  38.73°N, 98.23°W
Report Text: KSLN 220453Z 16010KT 10SM CLR 18/14 A3002 RMK AO2 SLP156 T01830139
Loading
Personal Weather Stations






























Interactive Weather Map
Tropical Storm Tracking
New forecast layout! Learn more

10-Day Weather Forecast

Advertisements
Track Severe Weather on mobile